createdAt,value
2023-01-21T00:00:33.185Z,585.8
2023-01-21T00:01:35.706Z,585.7
2023-01-21T00:02:38.691Z,585.7
2023-01-21T00:03:41.409Z,585.4
2023-01-21T00:04:43.671Z,585.4
2023-01-21T00:05:46.185Z,585.4
2023-01-21T00:06:48.686Z,585.6
2023-01-21T00:07:51.180Z,585.7
2023-01-21T00:08:53.708Z,586
2023-01-21T00:09:56.212Z,585.7
2023-01-21T00:10:58.705Z,585.6
2023-01-21T00:12:00.927Z,585.4
2023-01-21T00:13:03.412Z,585.4
2023-01-21T00:14:05.779Z,585.1
2023-01-21T00:15:07.731Z,585.5
2023-01-21T00:16:10.440Z,585.4
2023-01-21T00:17:12.719Z,585.3
2023-01-21T00:18:15.439Z,585.4
2023-01-21T00:19:17.123Z,585.6
2023-01-21T00:20:20.633Z,585.3
2023-01-21T00:21:22.864Z,585.3
2023-01-21T00:22:25.373Z,585.3
2023-01-21T00:23:27.376Z,585
2023-01-21T00:24:29.923Z,585.1
2023-01-21T00:25:31.917Z,585.2
2023-01-21T00:26:34.150Z,585.5
2023-01-21T00:27:36.652Z,585.1
2023-01-21T00:28:38.867Z,585.1
2023-01-21T00:29:41.081Z,585.4
2023-01-21T00:30:44.234Z,585.6
2023-01-21T00:31:47.301Z,585.4
2023-01-21T00:32:49.584Z,585.8
2023-01-21T00:33:52.180Z,585.4
2023-01-21T00:34:54.744Z,585.2
2023-01-21T00:35:57.267Z,585.1
2023-01-21T00:36:59.509Z,585.3
2023-01-21T00:38:02.020Z,585.1
2023-01-21T00:39:04.527Z,585.3
2023-01-21T00:40:06.804Z,584.8
2023-01-21T00:41:09.132Z,585
2023-01-21T00:42:11.103Z,585.3
2023-01-21T00:43:13.601Z,585.2
2023-01-21T00:44:16.091Z,584.8
2023-01-21T00:45:18.623Z,584.9
2023-01-21T00:46:21.563Z,584.8
2023-01-21T00:47:24.106Z,584.8
2023-01-21T00:48:26.354Z,584.7
2023-01-21T00:49:28.960Z,584.6
2023-01-21T00:50:30.913Z,584.8
2023-01-21T00:51:33.414Z,584.6
2023-01-21T00:52:35.677Z,584.9
2023-01-21T00:53:38.257Z,584.3
2023-01-21T00:54:40.751Z,584.8
2023-01-21T00:55:43.527Z,584.2
2023-01-21T00:56:46.714Z,584.4
2023-01-21T00:57:49.775Z,584.4
2023-01-21T00:58:52.865Z,584.2
2023-01-21T00:59:54.921Z,583.8
2023-01-21T01:00:56.848Z,584.3
2023-01-21T01:01:58.517Z,583.9
2023-01-21T01:03:01.168Z,584
2023-01-21T01:04:03.720Z,583.6
2023-01-21T01:05:06.030Z,583.5
2023-01-21T01:06:08.295Z,583.7
2023-01-21T01:07:10.825Z,583.6
2023-01-21T01:08:12.224Z,583.6
2023-01-21T01:09:14.720Z,584.1
2023-01-21T01:10:18.464Z,583.8
2023-01-21T01:11:20.781Z,583.7
2023-01-21T01:12:22.773Z,583.7
2023-01-21T01:13:25.309Z,583.5
2023-01-21T01:14:27.550Z,583.8
2023-01-21T01:15:30.083Z,583.8
2023-01-21T01:16:32.680Z,583.7
2023-01-21T01:17:35.159Z,583.9
2023-01-21T01:18:37.691Z,583.5
2023-01-21T01:19:39.927Z,583.5
2023-01-21T01:20:42.523Z,583.7
2023-01-21T01:21:44.776Z,583.3
2023-01-21T01:22:46.425Z,583.1
2023-01-21T01:23:48.917Z,583.2
2023-01-21T01:24:51.410Z,583.1
2023-01-21T01:25:53.917Z,582.6
2023-01-21T01:26:56.451Z,582.9
2023-01-21T01:27:58.949Z,582.4
2023-01-21T01:29:01.447Z,582.7
2023-01-21T01:30:03.950Z,582.7
2023-01-21T01:31:06.912Z,582.6
2023-01-21T01:32:09.168Z,582.7
2023-01-21T01:33:11.397Z,582.5
2023-01-21T01:34:13.919Z,583
2023-01-21T01:35:16.407Z,582.7
2023-01-21T01:36:19.312Z,582.5
2023-01-21T01:37:21.815Z,582.6
2023-01-21T01:38:24.386Z,582.2
2023-01-21T01:39:26.878Z,582.6
2023-01-21T01:40:29.076Z,582.7
2023-01-21T01:41:31.326Z,582.4
2023-01-21T01:42:33.870Z,582.9
2023-01-21T01:43:36.361Z,582.8
2023-01-21T01:44:38.859Z,582.6
2023-01-21T01:45:41.369Z,582.7
2023-01-21T01:46:43.959Z,582.8
2023-01-21T01:47:46.197Z,582.6
2023-01-21T01:48:48.428Z,582.7
2023-01-21T01:49:50.648Z,582.8
2023-01-21T01:50:53.497Z,582.5
2023-01-21T01:51:56.153Z,582.6
2023-01-21T01:52:58.664Z,582.8
2023-01-21T01:54:00.635Z,582.6
2023-01-21T01:55:03.153Z,582.8
2023-01-21T01:56:05.394Z,582.1
2023-01-21T01:57:07.351Z,582.1
2023-01-21T01:58:09.907Z,582.3
2023-01-21T01:59:12.408Z,582.4
2023-01-21T02:00:16.209Z,582.4
2023-01-21T02:01:18.920Z,582.5
2023-01-21T02:02:21.520Z,582.6
2023-01-21T02:03:24.020Z,582.6
2023-01-21T02:04:26.533Z,582.6
2023-01-21T02:05:28.767Z,582.5
2023-01-21T02:06:31.279Z,582.5
2023-01-21T02:07:33.615Z,582.2
2023-01-21T02:08:36.305Z,582.4
2023-01-21T02:09:38.603Z,582.4
2023-01-21T02:10:40.829Z,582.1
2023-01-21T02:11:43.060Z,582
2023-01-21T02:12:45.385Z,582.2
2023-01-21T02:13:47.925Z,582.4
2023-01-21T02:14:50.497Z,582.3
2023-01-21T02:15:52.978Z,582
2023-01-21T02:16:55.502Z,582.1
2023-01-21T02:17:58.060Z,581.7
2023-01-21T02:19:00.597Z,582.2
2023-01-21T02:20:02.846Z,581.9
2023-01-21T02:21:05.376Z,581.8
2023-01-21T02:22:07.618Z,581.9
2023-01-21T02:23:10.284Z,582.2
2023-01-21T02:24:12.784Z,582.1
2023-01-21T02:25:15.311Z,582.2
2023-01-21T02:26:17.512Z,582.2
2023-01-21T02:28:26.559Z,581.8
2023-01-21T02:29:29.107Z,582.4
2023-01-21T02:30:31.856Z,582.2
2023-01-21T02:31:34.003Z,582.3
2023-01-21T02:32:36.251Z,582.2
2023-01-21T02:33:38.783Z,582.5
2023-01-21T02:34:41.291Z,581.9
2023-01-21T02:35:43.526Z,582.1
2023-01-21T02:36:45.470Z,582
2023-01-21T02:37:47.972Z,582.5
2023-01-21T02:38:50.292Z,582.2
2023-01-21T02:39:52.811Z,582.2
2023-01-21T02:40:55.321Z,582.4
2023-01-21T02:41:57.317Z,582.4
2023-01-21T02:42:59.859Z,582.4
2023-01-21T02:44:02.089Z,582.4
2023-01-21T02:45:04.610Z,582.6
2023-01-21T02:46:07.098Z,582.5
2023-01-21T02:47:09.595Z,582.2
2023-01-21T02:48:11.822Z,582.4
2023-01-21T02:49:14.067Z,581.8
2023-01-21T02:50:18.465Z,581.7
2023-01-21T02:51:21.206Z,581.5
2023-01-21T02:52:23.462Z,581.8
2023-01-21T02:53:25.410Z,581.9
2023-01-21T02:54:28.019Z,581.8
2023-01-21T02:55:30.565Z,582.1
2023-01-21T02:56:32.776Z,582
2023-01-21T02:57:35.006Z,581.7
2023-01-21T02:58:36.977Z,582.4
2023-01-21T02:59:39.476Z,582.3
2023-01-21T03:00:42.318Z,582.3
2023-01-21T03:01:44.928Z,582.4
2023-01-21T03:02:47.191Z,582.2
2023-01-21T03:03:49.695Z,582.4
2023-01-21T03:04:52.192Z,582.3
2023-01-21T03:05:54.421Z,582.4
2023-01-21T03:06:56.954Z,582.2
2023-01-21T03:07:59.479Z,582.2
2023-01-21T03:09:01.432Z,581.6
2023-01-21T03:10:03.750Z,582.1
2023-01-21T03:11:06.443Z,581.9
2023-01-21T03:12:08.408Z,582.2
2023-01-21T03:13:10.632Z,581.9
2023-01-21T03:14:12.854Z,582.5
2023-01-21T03:15:14.529Z,581.9
2023-01-21T03:16:17.213Z,582
2023-01-21T03:17:19.776Z,582
2023-01-21T03:18:22.273Z,582.2
2023-01-21T03:19:24.256Z,582.4
2023-01-21T03:20:26.752Z,582.1
2023-01-21T03:21:29.272Z,582.4
2023-01-21T03:22:31.765Z,582.2
2023-01-21T03:23:34.244Z,582.3
2023-01-21T03:24:36.753Z,582.3
2023-01-21T03:25:39.385Z,582.6
2023-01-21T03:26:41.671Z,582.7
2023-01-21T03:27:43.942Z,582.5
2023-01-21T03:28:46.474Z,583
2023-01-21T03:29:48.988Z,582.7
2023-01-21T03:30:51.674Z,582.3
2023-01-21T03:31:54.669Z,582.5
2023-01-21T03:32:56.397Z,582.4
2023-01-21T03:33:58.342Z,582.8
2023-01-21T03:35:00.839Z,582.6
2023-01-21T03:36:03.372Z,582.8
2023-01-21T03:37:05.632Z,582.8
2023-01-21T03:38:08.116Z,582.9
2023-01-21T03:39:10.608Z,582.9
2023-01-21T03:40:13.115Z,582.7
2023-01-21T03:41:15.759Z,583.2
2023-01-21T03:42:18.259Z,583.3
2023-01-21T03:43:20.776Z,583.4
2023-01-21T03:44:23.285Z,583.3
2023-01-21T03:45:25.808Z,583.2
2023-01-21T03:46:27.799Z,583.4
2023-01-21T03:47:30.343Z,583.4
2023-01-21T03:48:32.587Z,583.5
2023-01-21T03:49:34.860Z,583.4
2023-01-21T03:50:37.080Z,583.8
2023-01-21T03:51:39.593Z,583.8
2023-01-21T03:52:41.823Z,583.4
2023-01-21T03:53:44.376Z,583.6
2023-01-21T03:54:46.871Z,583.4
2023-01-21T03:55:49.078Z,583.5
2023-01-21T03:56:51.775Z,583.7
2023-01-21T03:57:54.279Z,583.4
2023-01-21T03:58:56.226Z,583.5
2023-01-21T03:59:58.857Z,583.4
2023-01-21T04:01:01.771Z,583.8
2023-01-21T04:02:04.266Z,583.6
2023-01-21T04:03:06.775Z,583.7
2023-01-21T04:04:09.048Z,583.6
2023-01-21T04:05:11.032Z,583.7
2023-01-21T04:06:13.276Z,583.9
2023-01-21T04:07:15.484Z,583.5
2023-01-21T04:08:17.706Z,583.8
2023-01-21T04:09:19.921Z,583.7
2023-01-21T04:10:22.432Z,583.8
2023-01-21T04:11:24.686Z,583.8
2023-01-21T04:12:27.299Z,583.6
2023-01-21T04:13:29.524Z,583.3
2023-01-21T04:14:31.785Z,583.4
2023-01-21T04:15:34.299Z,583.5
2023-01-21T04:16:37.079Z,583.5
2023-01-21T04:17:39.336Z,583.2
2023-01-21T04:18:41.583Z,583.4
2023-01-21T04:19:44.165Z,583.1
2023-01-21T04:20:46.138Z,583.2
2023-01-21T04:21:48.410Z,583
2023-01-21T04:22:50.951Z,583
2023-01-21T04:23:53.462Z,583.2
2023-01-21T04:24:55.952Z,583
2023-01-21T04:25:58.445Z,583.2
2023-01-21T04:27:01.067Z,583
2023-01-21T04:28:03.702Z,582.9
2023-01-21T04:29:06.253Z,583.2
2023-01-21T04:30:08.824Z,583.1
2023-01-21T04:31:11.559Z,582.7
2023-01-21T04:32:13.774Z,583.2
2023-01-21T04:33:16.287Z,583.2
2023-01-21T04:34:19.074Z,583.3
2023-01-21T04:35:21.325Z,583.3
2023-01-21T04:36:23.881Z,582.8
2023-01-21T04:37:26.641Z,583.3
2023-01-21T04:38:29.157Z,583.2
2023-01-21T04:39:31.669Z,583.1
2023-01-21T04:40:34.150Z,582.8
2023-01-21T04:41:36.623Z,582.7
2023-01-21T04:42:39.146Z,582.8
2023-01-21T04:43:41.794Z,583.2
2023-01-21T04:44:44.298Z,582.8
2023-01-21T04:45:47.010Z,582.6
2023-01-21T04:46:49.508Z,582.8
2023-01-21T04:47:51.731Z,582.7
2023-01-21T04:48:54.349Z,582.4
2023-01-21T04:49:56.896Z,582.3
2023-01-21T04:50:59.523Z,581.8
2023-01-21T04:52:02.069Z,581.7
2023-01-21T04:53:04.583Z,582.1
2023-01-21T04:54:06.520Z,582.1
2023-01-21T04:55:09.028Z,581.5
2023-01-21T04:56:11.575Z,581.6
2023-01-21T04:57:13.890Z,581.9
2023-01-21T04:58:16.380Z,581.9
2023-01-21T04:59:18.702Z,581.7
2023-01-21T05:00:21.104Z,581.7
2023-01-21T05:01:23.838Z,581.4
2023-01-21T05:02:26.728Z,581.7
2023-01-21T05:03:28.990Z,581.6
2023-01-21T05:04:31.253Z,581.2
2023-01-21T05:05:33.525Z,581.5
2023-01-21T05:06:36.036Z,581.1
2023-01-21T05:07:38.574Z,581.4
2023-01-21T05:08:40.833Z,581
2023-01-21T05:09:43.357Z,581.3
2023-01-21T05:10:45.851Z,581.1
2023-01-21T05:11:48.385Z,581.6
2023-01-21T05:12:50.883Z,581.1
2023-01-21T05:13:53.170Z,581
2023-01-21T05:14:55.838Z,580.9
2023-01-21T05:15:58.439Z,581.2
2023-01-21T05:17:01.361Z,581.2
2023-01-21T05:18:03.874Z,581.1
2023-01-21T05:19:06.094Z,581.2
2023-01-21T05:20:08.039Z,581
2023-01-21T05:21:10.612Z,581.3
2023-01-21T05:22:12.832Z,580.8
2023-01-21T05:23:15.357Z,580.9
2023-01-21T05:24:17.857Z,580.9
2023-01-21T05:25:20.075Z,581.2
2023-01-21T05:26:22.824Z,580.9
2023-01-21T05:27:24.918Z,580.6
2023-01-21T05:28:27.524Z,581
2023-01-21T05:29:29.803Z,580.7
2023-01-21T05:30:32.704Z,580.8
2023-01-21T05:31:35.943Z,580.6
2023-01-21T05:32:38.211Z,580.9
2023-01-21T05:33:40.710Z,581.1
2023-01-21T05:34:43.079Z,580.5
2023-01-21T05:35:45.628Z,581.6
2023-01-21T05:36:47.908Z,580.9
2023-01-21T05:37:50.593Z,581.2
2023-01-21T05:38:53.205Z,581.3
2023-01-21T05:39:55.719Z,581.1
2023-01-21T05:40:58.239Z,581.2
2023-01-21T05:42:00.768Z,581.2
2023-01-21T05:43:03.028Z,581.2
2023-01-21T05:44:05.060Z,581.2
2023-01-21T05:45:07.000Z,581.1
2023-01-21T05:46:10.114Z,581.6
2023-01-21T05:47:12.661Z,581.3
2023-01-21T05:48:15.157Z,581.5
2023-01-21T05:49:17.655Z,581.7
2023-01-21T05:50:20.805Z,581.8
2023-01-21T05:51:23.656Z,581.7
2023-01-21T05:52:25.940Z,581.8
2023-01-21T05:53:28.202Z,581.6
2023-01-21T05:54:30.796Z,581.7
2023-01-21T05:55:33.301Z,581.8
2023-01-21T05:56:35.815Z,581.5
2023-01-21T05:57:38.036Z,581.4
2023-01-21T05:58:40.561Z,581.3
2023-01-21T05:59:42.785Z,581.2
2023-01-21T06:00:45.268Z,581.2
2023-01-21T06:01:47.890Z,581.1
2023-01-21T06:02:50.391Z,580.9
2023-01-21T06:03:53.011Z,581.1
2023-01-21T06:04:55.016Z,580.9
2023-01-21T06:05:57.510Z,580.9
2023-01-21T06:06:59.728Z,581
2023-01-21T06:08:02.290Z,581.4
2023-01-21T06:09:04.586Z,581
2023-01-21T06:10:06.827Z,580.7
2023-01-21T06:11:09.330Z,581.1
2023-01-21T06:12:11.554Z,580.7
2023-01-21T06:13:13.491Z,580.6
2023-01-21T06:14:16.011Z,580.5
2023-01-21T06:15:18.232Z,580.7
2023-01-21T06:16:20.746Z,580.2
2023-01-21T06:17:23.368Z,580.6
2023-01-21T06:18:25.904Z,580.6
2023-01-21T06:19:28.413Z,580.4
2023-01-21T06:20:31.004Z,580.5
2023-01-21T06:21:33.224Z,580
2023-01-21T06:22:35.713Z,580
2023-01-21T06:23:38.221Z,580.2
2023-01-21T06:24:40.439Z,580.2
2023-01-21T06:25:42.376Z,580.2
2023-01-21T06:26:44.891Z,580.1
2023-01-21T06:27:47.539Z,580
2023-01-21T06:28:50.042Z,580.4
2023-01-21T06:29:52.529Z,580
2023-01-21T06:30:55.616Z,579.8
2023-01-21T06:31:58.882Z,580
2023-01-21T06:33:01.333Z,579.5
2023-01-21T06:34:03.860Z,579.6
2023-01-21T06:35:06.110Z,579.5
2023-01-21T06:36:08.352Z,579.4
2023-01-21T06:37:10.853Z,579.2
2023-01-21T06:38:13.492Z,579.4
2023-01-21T06:39:15.453Z,579.1
2023-01-21T06:40:20.161Z,579.1
2023-01-21T06:41:22.721Z,579.3
2023-01-21T06:42:25.261Z,579.1
2023-01-21T06:43:27.515Z,579.2
2023-01-21T06:44:29.746Z,579
2023-01-21T06:45:31.973Z,578.8
2023-01-21T06:46:34.859Z,579.1
2023-01-21T06:47:37.101Z,578.5
2023-01-21T06:48:39.867Z,578.8
2023-01-21T06:49:42.393Z,578.9
2023-01-21T06:50:44.745Z,578.5
2023-01-21T06:51:47.302Z,578.7
2023-01-21T06:52:49.554Z,578.6
2023-01-21T06:53:52.112Z,578.2
2023-01-21T06:54:54.738Z,578.3
2023-01-21T06:55:57.239Z,578.2
2023-01-21T06:56:59.469Z,578
2023-01-21T06:58:02.026Z,578.2
2023-01-21T06:59:03.749Z,577.8
2023-01-21T07:00:06.740Z,577.6
2023-01-21T07:01:09.270Z,577.9
2023-01-21T07:02:11.770Z,577.6
2023-01-21T07:03:14.276Z,577.7
2023-01-21T07:04:16.942Z,577.8
2023-01-21T07:05:20.240Z,578.1
2023-01-21T07:06:22.499Z,578
2023-01-21T07:07:24.987Z,578.3
2023-01-21T07:08:27.489Z,578.2
2023-01-21T07:09:30.016Z,578.6
2023-01-21T07:10:32.566Z,578.2
2023-01-21T07:11:35.067Z,578.1
2023-01-21T07:12:37.625Z,577.8
2023-01-21T07:13:40.167Z,577.3
2023-01-21T07:14:42.661Z,577.6
2023-01-21T07:15:45.400Z,577.5
2023-01-21T07:16:47.657Z,577
2023-01-21T07:17:50.193Z,577.5
2023-01-21T07:18:52.509Z,576.9
2023-01-21T07:19:55.145Z,577
2023-01-21T07:20:57.120Z,576.6
2023-01-21T07:21:59.075Z,575.8
2023-01-21T07:23:01.301Z,576.4
2023-01-21T07:24:03.885Z,576.4
2023-01-21T07:25:06.110Z,575.8
2023-01-21T07:26:08.356Z,576.2
2023-01-21T07:27:10.933Z,576.4
2023-01-21T07:28:13.424Z,575.9
2023-01-21T07:29:15.982Z,575.8
2023-01-21T07:30:19.701Z,575.9
2023-01-21T07:31:23.109Z,575.7
2023-01-21T07:32:25.646Z,576.1
2023-01-21T07:33:27.890Z,576.3
2023-01-21T07:34:30.184Z,576.4
2023-01-21T07:35:32.809Z,576
2023-01-21T07:36:34.762Z,575.6
2023-01-21T07:37:37.284Z,575.7
2023-01-21T07:38:39.238Z,575.9
2023-01-21T07:39:41.753Z,575.4
2023-01-21T07:40:43.996Z,575.5
2023-01-21T07:41:46.006Z,575.6
2023-01-21T07:42:48.518Z,575.5
2023-01-21T07:43:50.727Z,575.4
2023-01-21T07:44:52.981Z,574.8
2023-01-21T07:45:55.491Z,575.6
2023-01-21T07:46:57.745Z,575.7
2023-01-21T07:47:59.997Z,575.6
2023-01-21T07:49:02.568Z,575.1
2023-01-21T07:50:05.131Z,575.3
2023-01-21T07:51:08.070Z,575.3
2023-01-21T07:52:10.663Z,575.5
2023-01-21T07:53:13.232Z,575.3
2023-01-21T07:54:14.964Z,575.5
2023-01-21T07:55:19.751Z,575
2023-01-21T07:56:22.443Z,574.6
2023-01-21T07:57:25.036Z,574.8
2023-01-21T07:58:27.583Z,574.8
2023-01-21T07:59:29.895Z,574.5
2023-01-21T08:00:31.891Z,574.6
2023-01-21T08:01:34.349Z,574.8
2023-01-21T08:02:37.705Z,574.9
2023-01-21T08:03:39.985Z,574.5
2023-01-21T08:04:42.517Z,574.4
2023-01-21T08:05:44.784Z,574.6
2023-01-21T08:06:47.516Z,574.6
2023-01-21T08:07:50.064Z,574.5
2023-01-21T08:08:52.304Z,574.6
2023-01-21T08:09:54.603Z,574.3
2023-01-21T08:10:57.097Z,574.4
2023-01-21T08:11:59.324Z,574.5
2023-01-21T08:13:01.933Z,574.7
2023-01-21T08:14:04.494Z,574.5
2023-01-21T08:15:07.031Z,574
2023-01-21T08:16:09.778Z,574.3
2023-01-21T08:17:12.317Z,574.3
2023-01-21T08:18:14.840Z,574.7
2023-01-21T08:19:17.419Z,574.5
2023-01-21T08:20:19.984Z,574.4
2023-01-21T08:21:22.522Z,574.6
2023-01-21T08:22:24.754Z,574.1
2023-01-21T08:23:27.399Z,574.4
2023-01-21T08:24:30.019Z,574.5
2023-01-21T08:25:32.534Z,574.4
2023-01-21T08:26:34.512Z,574.3
2023-01-21T08:27:37.045Z,574.3
2023-01-21T08:28:39.335Z,574.5
2023-01-21T08:29:41.822Z,574.4
2023-01-21T08:30:44.028Z,574.2
2023-01-21T08:31:46.724Z,574.4
2023-01-21T08:32:49.274Z,574.2
2023-01-21T08:33:51.801Z,574.2
2023-01-21T08:34:54.352Z,574.3
2023-01-21T08:35:56.567Z,574.2
2023-01-21T08:36:58.781Z,574.1
2023-01-21T08:38:01.576Z,574.2
2023-01-21T08:39:03.679Z,574.4
2023-01-21T08:40:06.201Z,574.2
2023-01-21T08:41:08.423Z,574.4
2023-01-21T08:42:10.678Z,573.8
2023-01-21T08:43:13.215Z,573.8
2023-01-21T08:44:15.780Z,573.9
2023-01-21T08:45:20.254Z,573.7
2023-01-21T08:46:22.721Z,574.3
2023-01-21T08:47:25.452Z,573.4
2023-01-21T08:48:27.484Z,573.5
2023-01-21T08:49:30.575Z,573.4
2023-01-21T08:50:33.434Z,573.3
2023-01-21T08:51:35.688Z,573.5
2023-01-21T08:52:38.184Z,573.9
2023-01-21T08:53:40.815Z,573.2
2023-01-21T08:54:43.368Z,573.5
2023-01-21T08:55:45.325Z,573.5
2023-01-21T08:56:47.578Z,573.6
2023-01-21T08:57:49.848Z,572.9
2023-01-21T08:58:51.781Z,573.1
2023-01-21T08:59:54.327Z,572.5
2023-01-21T09:00:57.131Z,573.1
2023-01-21T09:01:59.950Z,572.8
2023-01-21T09:03:02.573Z,572.8
2023-01-21T09:04:04.858Z,572.8
2023-01-21T09:05:06.786Z,572.6
2023-01-21T09:06:09.317Z,572.4
2023-01-21T09:07:11.840Z,572.5
2023-01-21T09:08:13.821Z,572.3
2023-01-21T09:09:16.417Z,572.5
2023-01-21T09:10:18.644Z,572.6
2023-01-21T09:11:20.574Z,572.4
2023-01-21T09:12:23.102Z,571.9
2023-01-21T09:13:29.191Z,572
2023-01-21T09:14:33.892Z,572
2023-01-21T09:15:36.432Z,572
2023-01-21T09:16:39.591Z,572.4
2023-01-21T09:17:42.134Z,572.4
2023-01-21T09:18:44.647Z,572.2
2023-01-21T09:19:47.141Z,572.5
2023-01-21T09:20:49.652Z,572.6
2023-01-21T09:21:52.166Z,572.9
2023-01-21T09:22:54.679Z,572.3
2023-01-21T09:23:56.924Z,572.4
2023-01-21T09:24:59.226Z,572.9
2023-01-21T09:26:01.762Z,572.6
2023-01-21T09:27:03.965Z,572.1
2023-01-21T09:28:06.204Z,572.4
2023-01-21T09:29:08.929Z,572.4
2023-01-21T09:30:11.164Z,572.4
2023-01-21T09:31:13.692Z,572.7
2023-01-21T09:32:16.205Z,572.4
2023-01-21T09:33:18.705Z,572.1
2023-01-21T09:34:21.229Z,572.6
2023-01-21T09:35:23.438Z,571.7
2023-01-21T09:36:25.948Z,572.1
2023-01-21T09:37:28.444Z,572.1
2023-01-21T09:38:30.968Z,572.4
2023-01-21T09:39:33.624Z,572.4
2023-01-21T09:40:36.245Z,572.4
2023-01-21T09:41:38.466Z,571.9
2023-01-21T09:42:40.993Z,572.9
2023-01-21T09:43:43.552Z,572.3
2023-01-21T09:44:45.920Z,572.3
2023-01-21T09:45:48.700Z,572.6
2023-01-21T09:46:51.264Z,572.4
2023-01-21T09:47:53.512Z,572.4
2023-01-21T09:48:56.020Z,572.2
2023-01-21T09:49:58.515Z,572.5
2023-01-21T09:51:01.418Z,572.5
2023-01-21T09:52:03.940Z,572.6
2023-01-21T09:53:06.168Z,572.4
2023-01-21T09:54:08.666Z,572.5
2023-01-21T09:55:11.187Z,572.1
2023-01-21T09:56:13.804Z,572
2023-01-21T09:57:16.333Z,572.5
2023-01-21T09:58:18.863Z,572.4
2023-01-21T09:59:22.804Z,572.5
2023-01-21T10:00:24.840Z,572.5
2023-01-21T10:01:27.795Z,572.2
2023-01-21T10:02:30.095Z,572.1
2023-01-21T10:03:32.635Z,572.2
2023-01-21T10:04:35.337Z,572.4
2023-01-21T10:05:37.605Z,572.3
2023-01-21T10:06:39.833Z,572.1
2023-01-21T10:07:42.346Z,572.2
2023-01-21T10:08:44.584Z,572.5
2023-01-21T10:09:47.132Z,572.6
2023-01-21T10:10:49.364Z,572.8
2023-01-21T10:11:51.999Z,572.8
2023-01-21T10:12:54.489Z,572.8
2023-01-21T10:13:56.429Z,572.5
2023-01-21T10:14:58.722Z,572.4
2023-01-21T10:16:00.944Z,573.4
2023-01-21T10:17:03.534Z,573.1
2023-01-21T10:18:06.085Z,573.5
2023-01-21T10:19:08.595Z,573.3
2023-01-21T10:20:10.865Z,573.4
2023-01-21T10:21:13.372Z,573.5
2023-01-21T10:22:15.624Z,573.6
2023-01-21T10:23:17.857Z,573.6
2023-01-21T10:24:20.359Z,573.5
2023-01-21T10:25:22.925Z,573.4
2023-01-21T10:26:25.150Z,573.7
2023-01-21T10:27:27.554Z,573.8
2023-01-21T10:28:30.060Z,573.8
2023-01-21T10:29:32.586Z,573.6
2023-01-21T10:30:35.606Z,573.6
2023-01-21T10:31:39.193Z,573.2
2023-01-21T10:32:40.956Z,573.3
2023-01-21T10:33:43.508Z,573.8
2023-01-21T10:34:46.008Z,573.5
2023-01-21T10:35:48.525Z,573.6
2023-01-21T10:36:50.786Z,573.2
2023-01-21T10:37:53.018Z,573.1
2023-01-21T10:38:55.531Z,573.1
2023-01-21T10:39:58.045Z,573.5
2023-01-21T10:41:00.575Z,573
2023-01-21T10:42:03.105Z,573.6
2023-01-21T10:43:05.460Z,573.4
2023-01-21T10:44:07.718Z,573.8
2023-01-21T10:45:10.022Z,573.5
2023-01-21T10:46:12.913Z,573.7
2023-01-21T10:47:15.442Z,573.9
2023-01-21T10:48:17.959Z,574
2023-01-21T10:49:20.192Z,574
2023-01-21T10:50:21.859Z,573.7
2023-01-21T10:51:23.748Z,573.8
2023-01-21T10:52:26.239Z,573.7
2023-01-21T10:53:28.447Z,573.5
2023-01-21T10:54:30.675Z,574.1
2023-01-21T10:55:33.194Z,574
2023-01-21T10:56:35.433Z,574.2
2023-01-21T10:57:37.940Z,574.3
2023-01-21T10:58:40.318Z,574.1
2023-01-21T10:59:42.294Z,574.5
2023-01-21T11:00:44.615Z,574.2
2023-01-21T11:01:46.881Z,574.4
2023-01-21T11:02:49.195Z,574.2
2023-01-21T11:03:51.427Z,574.5
2023-01-21T11:04:54.002Z,574.5
2023-01-21T11:05:56.222Z,574.6
2023-01-21T11:06:59.191Z,574.6
2023-01-21T11:08:01.154Z,574.9
2023-01-21T11:09:04.293Z,574.7
2023-01-21T11:10:07.276Z,574.8
2023-01-21T11:11:09.855Z,574.6
2023-01-21T11:12:12.380Z,574.8
2023-01-21T11:13:14.895Z,574.9
2023-01-21T11:15:24.130Z,575.3
2023-01-21T11:16:26.693Z,575
2023-01-21T11:17:29.219Z,575.4
2023-01-21T11:18:31.234Z,575.2
2023-01-21T11:19:33.467Z,575.1
2023-01-21T11:20:36.048Z,575.2
2023-01-21T11:21:38.575Z,575.2
2023-01-21T11:22:40.802Z,575.3
2023-01-21T11:23:43.060Z,575.2
2023-01-21T11:24:45.031Z,575.8
2023-01-21T11:25:47.539Z,575.1
2023-01-21T11:26:50.073Z,575.4
2023-01-21T11:27:52.595Z,575.4
2023-01-21T11:28:54.816Z,575.5
2023-01-21T11:29:57.110Z,575.8
2023-01-21T11:31:00.641Z,575.7
2023-01-21T11:32:03.839Z,575.7
2023-01-21T11:33:06.104Z,575.7
2023-01-21T11:34:08.639Z,575.7
2023-01-21T11:35:12.293Z,575.5
2023-01-21T11:36:14.825Z,576.1
2023-01-21T11:37:17.067Z,575.7
2023-01-21T11:38:19.284Z,576.3
2023-01-21T11:39:21.777Z,576.4
2023-01-21T11:40:26.064Z,576.2
2023-01-21T11:41:28.551Z,576.6
2023-01-21T11:42:30.789Z,576.6
2023-01-21T11:43:33.012Z,576.7
2023-01-21T11:44:35.529Z,577.3
2023-01-21T11:45:37.927Z,576.5
2023-01-21T11:46:40.478Z,576.6
2023-01-21T11:47:43.055Z,577.1
2023-01-21T11:48:45.016Z,577.4
2023-01-21T11:49:47.237Z,576.7
2023-01-21T11:50:50.077Z,576.9
2023-01-21T11:51:52.680Z,577.4
2023-01-21T11:52:55.175Z,577.1
2023-01-21T11:53:57.682Z,577.2
2023-01-21T11:54:59.968Z,577.7
2023-01-21T11:56:02.509Z,577.4
2023-01-21T11:57:04.854Z,577.6
2023-01-21T11:58:07.371Z,577.3
2023-01-21T11:59:09.635Z,577.2
2023-01-21T12:00:11.583Z,577.6
2023-01-21T12:01:14.197Z,577.3
2023-01-21T12:02:16.733Z,577.9
2023-01-21T12:03:19.266Z,577.5
2023-01-21T12:04:21.497Z,578
2023-01-21T12:05:23.986Z,577.7
2023-01-21T12:06:26.525Z,577.8
2023-01-21T12:07:29.059Z,577.9
2023-01-21T12:08:31.277Z,578.3
2023-01-21T12:09:33.824Z,578
2023-01-21T12:10:36.311Z,578.2
2023-01-21T12:11:38.861Z,578.4
2023-01-21T12:12:40.805Z,578.3
2023-01-21T12:13:43.316Z,578.1
2023-01-21T12:14:45.837Z,578.5
2023-01-21T12:15:48.622Z,577.9
2023-01-21T12:16:51.262Z,578.3
2023-01-21T12:17:53.800Z,578.8
2023-01-21T12:18:55.769Z,578.7
2023-01-21T12:19:58.410Z,578.6
2023-01-21T12:21:00.710Z,578.7
2023-01-21T12:22:03.288Z,579
2023-01-21T12:23:05.609Z,578.7
2023-01-21T12:24:07.902Z,579.1
2023-01-21T12:25:10.510Z,578.9
2023-01-21T12:26:13.100Z,579
2023-01-21T12:27:15.324Z,578.9
2023-01-21T12:28:17.880Z,579
2023-01-21T12:29:22.405Z,579.2
2023-01-21T12:30:24.991Z,579.5
2023-01-21T12:31:27.891Z,579.3
2023-01-21T12:32:30.502Z,578.9
2023-01-21T12:33:32.852Z,579.2
2023-01-21T12:34:35.351Z,579.2
2023-01-21T12:35:37.590Z,579.5
2023-01-21T12:36:40.128Z,579.3
2023-01-21T12:37:42.378Z,578.9
2023-01-21T12:38:44.907Z,579
2023-01-21T12:39:47.116Z,579.7
2023-01-21T12:40:49.101Z,579.4
2023-01-21T12:41:51.609Z,579.4
2023-01-21T12:42:54.009Z,579.3
2023-01-21T12:43:56.257Z,579.3
2023-01-21T12:44:58.483Z,578.9
2023-01-21T12:46:00.408Z,579.1
2023-01-21T12:47:03.150Z,579.2
2023-01-21T12:48:05.429Z,578.9
2023-01-21T12:49:07.991Z,578.9
2023-01-21T12:50:10.761Z,579.3
2023-01-21T12:51:13.607Z,579.1
2023-01-21T12:52:15.549Z,579.4
2023-01-21T12:53:17.534Z,579.1
2023-01-21T12:54:19.769Z,579.3
2023-01-21T12:55:22.729Z,579
2023-01-21T12:56:25.270Z,579.2
2023-01-21T12:57:27.565Z,579.1
2023-01-21T12:58:30.083Z,578.9
2023-01-21T12:59:33.375Z,579.1
2023-01-21T13:00:35.894Z,578.9
2023-01-21T13:01:38.849Z,579.1
2023-01-21T13:02:40.551Z,578.8
2023-01-21T13:03:43.120Z,579.1
2023-01-21T13:04:45.678Z,579.2
2023-01-21T13:05:48.180Z,579.1
2023-01-21T13:07:55.401Z,579.1
2023-01-21T13:08:57.943Z,579.4
2023-01-21T13:10:00.196Z,579.1
2023-01-21T13:11:02.204Z,578.9
2023-01-21T13:12:04.457Z,578.9
2023-01-21T13:13:06.967Z,578.8
2023-01-21T13:14:09.507Z,579
2023-01-21T13:15:12.010Z,578.9
2023-01-21T13:16:14.897Z,578.5
2023-01-21T13:17:17.471Z,578.5
2023-01-21T13:18:20.007Z,578.4
2023-01-21T13:19:22.617Z,578.8
2023-01-21T13:20:24.588Z,578.7
2023-01-21T13:22:32.139Z,578.7
2023-01-21T13:23:34.426Z,578.7
2023-01-21T13:24:36.972Z,578.5
2023-01-21T13:25:39.620Z,578.8
2023-01-21T13:26:41.849Z,578.7
2023-01-21T13:27:46.147Z,578.7
2023-01-21T13:28:48.661Z,578.7
2023-01-21T13:29:51.352Z,579
2023-01-21T13:30:53.885Z,578.8
2023-01-21T13:31:56.676Z,578.4
2023-01-21T13:32:59.215Z,578.3